Terminal Aerodrome Forecast
Issued by NWS

Home | Current Version | Previous Version | Text Only | Print | Product List | Glossary Off
Versions: 1 2 3 4 5 6 7 8 9 10 11 12 13

000
FTUS43 KIWX 200500
TAFSBN
TAF
KSBN 200520Z 2006/2106 36003KT P6SM BKN250
     FM201300 03006KT P6SM BKN150
     FM202000 34008KT P6SM BKN080=

USA.gov is the U.S. government's official web portal to all federal, state and local government web resources and services.